createdAt,value
2023-04-18T00:00:19.246Z,11.54
2023-04-18T00:03:21.943Z,11.61
2023-04-18T00:06:23.703Z,11.67
2023-04-18T00:09:25.686Z,11.55
2023-04-18T00:12:27.955Z,11.62
2023-04-18T00:15:30.278Z,11.46
2023-04-18T00:18:31.861Z,11.61
2023-04-18T00:21:33.514Z,11.50
2023-04-18T00:24:35.118Z,11.57
2023-04-18T00:27:41.136Z,11.62
2023-04-18T00:30:42.811Z,11.59
2023-04-18T00:33:44.532Z,11.56
2023-04-18T00:36:46.111Z,11.55
2023-04-18T00:39:47.715Z,11.46
2023-04-18T00:42:49.302Z,11.51
2023-04-18T00:45:50.934Z,11.47
2023-04-18T00:48:52.725Z,11.47
2023-04-18T00:51:56.736Z,11.45
2023-04-18T00:54:58.338Z,11.29
2023-04-18T00:58:00.284Z,11.40
2023-04-18T01:01:01.899Z,11.43
2023-04-18T01:04:03.763Z,11.42
2023-04-18T01:07:06.053Z,11.40
2023-04-18T01:10:10.325Z,11.23
2023-04-18T01:13:14.227Z,11.31
2023-04-18T01:16:15.804Z,11.28
2023-04-18T01:19:17.520Z,11.23
2023-04-18T01:22:20.296Z,11.16
2023-04-18T01:25:21.978Z,11.20
2023-04-18T01:28:23.633Z,11.27
2023-04-18T01:31:25.250Z,11.29
2023-04-18T01:34:26.848Z,11.26
2023-04-18T01:37:28.423Z,11.26
2023-04-18T01:40:30.327Z,11.21
2023-04-18T01:43:31.930Z,11.20
2023-04-18T01:46:34.275Z,11.20
2023-04-18T01:49:35.882Z,11.29
2023-04-18T01:52:37.453Z,11.10
2023-04-18T01:55:38.981Z,11.26
2023-04-18T01:58:41.701Z,11.23
2023-04-18T02:01:43.366Z,11.24
2023-04-18T02:04:44.981Z,11.27
2023-04-18T02:07:47.729Z,11.31
2023-04-18T02:10:49.301Z,11.32
2023-04-18T02:13:50.874Z,11.32
2023-04-18T02:16:52.456Z,11.30
2023-04-18T02:19:54.040Z,11.16
2023-04-18T02:22:55.681Z,11.23
2023-04-18T02:25:57.250Z,11.28
2023-04-18T02:28:58.868Z,11.30
2023-04-18T02:32:00.741Z,11.37
2023-04-18T02:35:02.340Z,11.40
2023-04-18T02:38:03.874Z,11.44
2023-04-18T02:41:05.530Z,11.45
2023-04-18T02:44:08.661Z,11.37
2023-04-18T02:47:10.394Z,11.47
2023-04-18T02:50:12.001Z,11.46
2023-04-18T02:53:13.603Z,11.55
2023-04-18T02:56:17.157Z,11.58
2023-04-18T02:59:18.753Z,11.60
2023-04-18T03:02:21.002Z,11.55
2023-04-18T03:05:22.804Z,11.50
2023-04-18T03:08:24.509Z,11.55
2023-04-18T03:11:26.053Z,11.62
2023-04-18T03:14:27.632Z,11.42
2023-04-18T03:17:29.334Z,11.52
2023-04-18T03:20:30.896Z,11.59
2023-04-18T03:23:32.586Z,11.49
2023-04-18T03:26:34.165Z,11.54
2023-04-18T03:29:35.797Z,11.45
2023-04-18T03:32:38.607Z,11.46
2023-04-18T03:35:40.633Z,11.39
2023-04-18T03:38:42.383Z,11.39
2023-04-18T03:41:43.924Z,11.32
2023-04-18T03:44:45.474Z,11.34
2023-04-18T03:47:47.075Z,11.20
2023-04-18T03:50:48.690Z,11.37
2023-04-18T03:53:50.399Z,11.38
2023-04-18T03:56:52.440Z,11.35
2023-04-18T03:59:54.177Z,11.39
2023-04-18T04:02:56.151Z,11.37
2023-04-18T04:05:58.037Z,11.31
2023-04-18T04:08:59.615Z,11.21
2023-04-18T04:12:02.258Z,11.16
2023-04-18T04:15:04.091Z,11.16
2023-04-18T04:18:06.527Z,11.16
2023-04-18T04:21:08.160Z,11.14
2023-04-18T04:24:09.751Z,11.06
2023-04-18T04:27:12.605Z,11.15
2023-04-18T04:30:14.347Z,11.19
2023-04-18T04:33:19.709Z,11.16
2023-04-18T04:36:23.119Z,11.14
2023-04-18T04:39:24.786Z,11.08
2023-04-18T04:42:26.899Z,11.21
2023-04-18T04:45:28.611Z,11.22
2023-04-18T04:48:30.242Z,11.27
2023-04-18T04:51:31.980Z,11.30
2023-04-18T04:54:33.530Z,11.40
2023-04-18T04:57:35.828Z,11.39
2023-04-18T05:00:37.435Z,11.38
2023-04-18T05:03:39.138Z,11.42
2023-04-18T05:06:40.952Z,11.36
2023-04-18T05:09:42.536Z,11.42
2023-04-18T05:12:44.121Z,11.45
2023-04-18T05:15:45.846Z,11.52
2023-04-18T05:18:47.438Z,11.58
2023-04-18T05:21:49.015Z,11.66
2023-04-18T05:24:50.609Z,11.66
2023-04-18T05:27:52.285Z,11.76
2023-04-18T05:31:01.100Z,11.96
2023-04-18T05:34:02.806Z,12.04
2023-04-18T05:37:04.412Z,12.19
2023-04-18T05:40:06.898Z,12.21
2023-04-18T05:43:08.455Z,12.22
2023-04-18T05:46:10.185Z,12.29
2023-04-18T05:49:12.133Z,12.15
2023-04-18T05:52:13.731Z,12.42
2023-04-18T05:55:15.406Z,12.42
2023-04-18T05:58:17.022Z,12.32
2023-04-18T06:01:18.823Z,12.36
2023-04-18T06:04:21.280Z,12.35
2023-04-18T06:07:25.230Z,12.30
2023-04-18T06:10:26.872Z,12.26
2023-04-18T06:13:28.523Z,12.22
2023-04-18T06:16:30.313Z,12.23
2023-04-18T06:19:31.893Z,12.13
2023-04-18T06:22:36.398Z,12.15
2023-04-18T06:25:38.049Z,11.89
2023-04-18T06:28:39.715Z,11.85
2023-04-18T06:31:42.210Z,11.80
2023-04-18T06:34:44.856Z,11.69
2023-04-18T06:37:46.570Z,11.68
2023-04-18T06:40:48.296Z,11.54
2023-04-18T06:44:14.511Z,11.50
2023-04-18T06:47:11.542Z,11.27
2023-04-18T06:50:13.698Z,11.20
2023-04-18T06:53:15.263Z,11.25
2023-04-18T06:56:16.866Z,11.20
2023-04-18T06:59:19.313Z,11.11
2023-04-18T07:02:20.927Z,11.15
2023-04-18T07:05:22.677Z,11.16
2023-04-18T07:08:24.235Z,11.10
2023-04-18T07:11:26.117Z,11.26
2023-04-18T07:14:28.467Z,11.48
2023-04-18T07:17:30.113Z,11.51
2023-04-18T07:20:31.715Z,11.70
2023-04-18T07:23:33.339Z,11.78
2023-04-18T07:26:34.998Z,11.88
2023-04-18T07:29:36.582Z,11.97
2023-04-18T07:32:38.285Z,12.37
2023-04-18T07:35:40.516Z,12.63
2023-04-18T07:38:42.597Z,12.76
2023-04-18T07:41:44.177Z,12.97
2023-04-18T07:44:45.890Z,13.18
2023-04-18T07:47:47.568Z,13.38
2023-04-18T07:50:49.441Z,13.43
2023-04-18T07:53:51.252Z,13.49
2023-04-18T07:56:52.951Z,13.62
2023-04-18T07:59:54.491Z,13.89
2023-04-18T08:02:56.576Z,14.27
2023-04-18T08:05:58.246Z,14.57
2023-04-18T08:09:03.154Z,14.78
2023-04-18T08:12:05.162Z,15.32
2023-04-18T08:15:07.462Z,15.17
2023-04-18T08:18:09.053Z,15.33
2023-04-18T08:21:10.721Z,15.48
2023-04-18T08:24:12.340Z,15.43
2023-04-18T08:27:14.052Z,15.16
2023-04-18T08:30:15.670Z,14.91
2023-04-18T08:33:18.430Z,15.04
2023-04-18T08:36:21.259Z,14.71
2023-04-18T08:39:24.849Z,14.57
2023-04-18T08:42:27.638Z,14.32
2023-04-18T08:45:29.591Z,14.39
2023-04-18T08:48:31.487Z,14.29
2023-04-18T08:51:41.653Z,14.56
2023-04-18T08:54:45.272Z,14.95
2023-04-18T08:57:47.575Z,15.23
2023-04-18T09:00:55.817Z,15.61
2023-04-18T09:03:58.298Z,15.94
2023-04-18T09:07:00.550Z,16.04
2023-04-18T09:10:02.142Z,16.44
2023-04-18T09:13:04.453Z,16.61
2023-04-18T09:16:06.564Z,16.89
2023-04-18T09:19:18.161Z,17.17
2023-04-18T09:22:20.854Z,17.33
2023-04-18T09:25:34.933Z,17.25
2023-04-18T09:28:37.529Z,17.45
2023-04-18T09:32:02.207Z,17.76
2023-04-18T09:35:05.471Z,17.65
2023-04-18T09:38:07.926Z,17.81
2023-04-18T09:41:11.433Z,18.04
2023-04-18T09:44:15.312Z,18.10
2023-04-18T09:47:17.312Z,18.25
2023-04-18T09:50:20.856Z,18.31
2023-04-18T09:53:24.365Z,18.38
2023-04-18T09:56:29.666Z,18.42
2023-04-18T09:59:47.778Z,18.29
2023-04-18T10:02:59.789Z,18.75
2023-04-18T10:06:01.743Z,18.67
2023-04-18T10:09:04.369Z,19.23
2023-04-18T10:12:06.390Z,19.26
2023-04-18T10:15:11.009Z,19.53
2023-04-18T10:18:18.847Z,19.78
2023-04-18T10:21:21.745Z,19.93
2023-04-18T10:24:45.311Z,20.04
2023-04-18T10:27:49.590Z,20.48
2023-04-18T10:30:53.802Z,19.81
2023-04-18T10:37:06.241Z,20.41
2023-04-18T10:40:10.342Z,20.80
2023-04-18T10:43:13.326Z,20.93
2023-04-18T10:46:30.377Z,21.04
2023-04-18T10:49:33.436Z,21.70
2023-04-18T10:52:35.372Z,21.27
2023-04-18T10:55:39.489Z,20.19
2023-04-18T10:58:42.474Z,20.43
2023-04-18T11:01:49.185Z,20.72
2023-04-18T11:04:59.166Z,20.92
2023-04-18T11:08:00.769Z,20.90
2023-04-18T11:11:06.904Z,21.18
2023-04-18T11:14:08.536Z,21.32
2023-04-18T11:17:26.507Z,21.36
2023-04-18T11:20:29.498Z,21.41
2023-04-18T11:23:31.154Z,20.85
2023-04-18T11:26:33.423Z,20.51
2023-04-18T11:29:35.359Z,20.07
2023-04-18T11:32:37.094Z,20.53
2023-04-18T11:35:38.794Z,20.20
2023-04-18T11:38:42.065Z,21.09
2023-04-18T11:41:50.224Z,21.98
2023-04-18T11:44:51.829Z,22.33
2023-04-18T11:47:59.715Z,22.47
2023-04-18T11:51:01.466Z,22.46
2023-04-18T11:54:03.206Z,22.17
2023-04-18T11:57:06.286Z,22.53
2023-04-18T12:00:12.268Z,23.22
2023-04-18T12:03:18.783Z,24.39
2023-04-18T12:06:20.484Z,24.18
2023-04-18T12:09:24.553Z,25.67
2023-04-18T12:12:26.123Z,25.61
2023-04-18T12:15:28.981Z,24.61
2023-04-18T12:18:31.483Z,24.20
2023-04-18T12:21:33.148Z,23.55
2023-04-18T12:24:36.109Z,23.63
2023-04-18T12:27:58.539Z,25.74
2023-04-18T12:31:00.485Z,25.88
2023-04-18T12:34:02.139Z,25.23
2023-04-18T12:37:05.069Z,26.47
2023-04-18T12:40:07.843Z,24.95
2023-04-18T12:43:09.626Z,23.81
2023-04-18T12:46:11.277Z,23.23
2023-04-18T12:49:12.909Z,26.27
2023-04-18T12:52:16.198Z,25.07
2023-04-18T12:55:17.891Z,23.88
2023-04-18T12:58:20.647Z,24.25
2023-04-18T13:01:22.318Z,26.19
2023-04-18T13:04:24.133Z,27.55
2023-04-18T13:07:25.883Z,26.59
2023-04-18T13:10:27.461Z,25.95
2023-04-18T13:13:29.027Z,25.25
2023-04-18T13:16:31.242Z,23.38
2023-04-18T13:19:32.845Z,24.38
2023-04-18T13:22:34.789Z,26.58
2023-04-18T13:25:36.428Z,25.66
2023-04-18T13:28:38.057Z,25.27
2023-04-18T13:31:39.714Z,25.36
2023-04-18T13:34:46.484Z,25.80
2023-04-18T13:37:48.055Z,25.25
2023-04-18T13:40:55.803Z,25.70
2023-04-18T13:44:06.276Z,26.39
2023-04-18T13:47:08.114Z,26.75
2023-04-18T13:50:10.013Z,27.41
2023-04-18T13:53:11.715Z,27.73
2023-04-18T13:56:13.307Z,27.44
2023-04-18T13:59:15.046Z,26.89
2023-04-18T14:02:16.989Z,26.98
2023-04-18T14:05:18.806Z,26.27
2023-04-18T14:08:21.049Z,24.81
2023-04-18T14:11:23.045Z,24.22
2023-04-18T14:14:24.982Z,25.10
2023-04-18T14:17:26.580Z,24.64
2023-04-18T14:20:34.286Z,25.57
2023-04-18T14:23:35.893Z,25.31
2023-04-18T14:26:37.657Z,25.52
2023-04-18T14:29:39.308Z,25.36
2023-04-18T14:32:41.060Z,25.62
2023-04-18T14:35:43.811Z,25.36
2023-04-18T14:38:49.522Z,25.63
2023-04-18T14:41:51.094Z,23.64
2023-04-18T14:44:52.639Z,23.06
2023-04-18T14:47:55.817Z,24.16
2023-04-18T14:51:02.548Z,23.69
2023-04-18T14:54:04.281Z,24.15
2023-04-18T14:57:08.251Z,24.92
2023-04-18T15:00:11.319Z,24.25
2023-04-18T15:03:13.058Z,23.46
2023-04-18T15:06:14.725Z,24.56
2023-04-18T15:09:16.313Z,24.41
2023-04-18T15:12:18.045Z,25.24
2023-04-18T15:15:19.797Z,24.72
2023-04-18T15:18:21.532Z,24.92
2023-04-18T15:21:23.176Z,24.86
2023-04-18T15:24:24.758Z,24.72
2023-04-18T15:27:26.411Z,23.59
2023-04-18T15:30:28.085Z,23.70
2023-04-18T15:33:29.759Z,24.13
2023-04-18T15:36:31.785Z,24.42
2023-04-18T15:39:33.348Z,23.65
2023-04-18T15:42:35.168Z,24.53
2023-04-18T15:45:36.764Z,25.47
2023-04-18T15:48:38.316Z,25.34
2023-04-18T15:51:40.367Z,25.18
2023-04-18T15:54:44.812Z,25.38
2023-04-18T15:57:46.452Z,25.12
2023-04-18T16:00:50.092Z,25.68
2023-04-18T16:03:51.815Z,25.77
2023-04-18T16:06:53.447Z,25.62
2023-04-18T16:09:55.018Z,24.71
2023-04-18T16:12:56.683Z,24.48
2023-04-18T16:15:58.337Z,23.80
2023-04-18T16:19:00.806Z,22.10
2023-04-18T16:22:02.330Z,20.89
2023-04-18T16:25:05.003Z,20.32
2023-04-18T16:28:06.645Z,19.74
2023-04-18T16:31:08.278Z,19.23
2023-04-18T16:34:09.998Z,18.71
2023-04-18T16:37:11.839Z,18.40
2023-04-18T16:40:15.289Z,18.03
2023-04-18T16:43:16.989Z,17.67
2023-04-18T16:46:19.161Z,17.29
2023-04-18T16:49:20.953Z,16.93
2023-04-18T16:52:23.172Z,16.73
2023-04-18T16:55:24.824Z,16.54
2023-04-18T16:58:26.417Z,16.52
2023-04-18T17:01:28.073Z,16.35
2023-04-18T17:04:29.994Z,16.05
2023-04-18T17:07:31.562Z,15.93
2023-04-18T17:10:33.452Z,15.72
2023-04-18T17:13:36.065Z,15.53
2023-04-18T17:16:39.637Z,15.30
2023-04-18T17:19:41.678Z,15.16
2023-04-18T17:22:43.630Z,14.94
2023-04-18T17:25:45.311Z,14.86
2023-04-18T17:28:46.937Z,14.65
2023-04-18T17:31:48.553Z,14.60
2023-04-18T17:34:50.194Z,14.28
2023-04-18T17:37:52.890Z,14.12
2023-04-18T17:41:02.140Z,14.08
2023-04-18T17:44:04.416Z,13.94
2023-04-18T17:47:06.862Z,13.61
2023-04-18T17:50:08.873Z,13.62
2023-04-18T17:53:12.365Z,13.58
2023-04-18T17:56:13.920Z,13.55
2023-04-18T17:59:15.923Z,13.31
2023-04-18T18:02:17.776Z,13.25
2023-04-18T18:05:19.429Z,13.12
2023-04-18T18:08:21.929Z,13.01
2023-04-18T18:11:23.803Z,12.89
2023-04-18T18:14:26.800Z,12.77
2023-04-18T18:17:28.973Z,12.70
2023-04-18T18:20:30.856Z,12.63
2023-04-18T18:23:32.468Z,12.61
2023-04-18T18:26:37.372Z,12.65
2023-04-18T18:29:38.955Z,12.70
2023-04-18T18:32:40.620Z,12.75
2023-04-18T18:35:42.228Z,12.77
2023-04-18T18:38:43.829Z,12.77
2023-04-18T18:41:45.503Z,12.83
2023-04-18T18:44:47.098Z,12.87
2023-04-18T18:47:48.878Z,12.90
2023-04-18T18:50:51.466Z,12.92
2023-04-18T18:53:53.102Z,12.92
2023-04-18T18:56:54.688Z,12.84
2023-04-18T18:59:56.306Z,12.61
2023-04-18T19:02:57.994Z,12.61
2023-04-18T19:06:03.905Z,12.67
2023-04-18T19:09:05.555Z,12.59
2023-04-18T19:12:07.428Z,12.55
2023-04-18T19:15:09.849Z,12.54
2023-04-18T19:18:12.461Z,12.77
2023-04-18T19:21:14.066Z,12.87
2023-04-18T19:24:16.026Z,12.97
2023-04-18T19:27:17.936Z,12.75
2023-04-18T19:30:19.695Z,12.76
2023-04-18T19:33:24.491Z,12.71
2023-04-18T19:36:26.713Z,12.58
2023-04-18T19:39:28.641Z,12.64
2023-04-18T19:42:30.229Z,12.64
2023-04-18T19:45:31.894Z,12.72
2023-04-18T19:48:33.658Z,12.58
2023-04-18T19:51:35.321Z,12.52
2023-04-18T19:54:36.946Z,12.65
2023-04-18T19:57:39.648Z,12.81
2023-04-18T20:00:41.604Z,12.84
2023-04-18T20:03:43.529Z,12.78
2023-04-18T20:06:45.406Z,12.69
2023-04-18T20:09:46.955Z,12.63
2023-04-18T20:12:50.051Z,12.65
2023-04-18T20:15:53.345Z,12.69
2023-04-18T20:18:56.599Z,12.82
2023-04-18T20:21:58.218Z,12.62
2023-04-18T20:25:00.964Z,12.60
2023-04-18T20:28:03.050Z,12.61
2023-04-18T20:31:04.829Z,12.55
2023-04-18T20:34:06.706Z,12.46
2023-04-18T20:37:09.343Z,12.46
2023-04-18T20:40:11.383Z,12.46
2023-04-18T20:43:17.326Z,12.42
2023-04-18T20:46:19.005Z,12.24
2023-04-18T20:49:20.595Z,12.41
2023-04-18T20:52:22.521Z,12.38
2023-04-18T20:55:24.087Z,12.42
2023-04-18T20:58:25.868Z,12.43
2023-04-18T21:01:27.491Z,12.54
2023-04-18T21:04:29.425Z,12.36
2023-04-18T21:07:32.149Z,12.55
2023-04-18T21:10:34.086Z,12.50
2023-04-18T21:13:35.685Z,12.53
2023-04-18T21:16:39.433Z,12.52
2023-04-18T21:19:41.095Z,12.46
2023-04-18T21:22:42.743Z,12.42
2023-04-18T21:25:44.343Z,12.28
2023-04-18T21:29:00.139Z,12.27
2023-04-18T21:32:01.988Z,12.28
2023-04-18T21:35:03.648Z,12.32
2023-04-18T21:38:05.347Z,12.35
2023-04-18T21:41:07.219Z,12.38
2023-04-18T21:44:08.772Z,12.30
2023-04-18T21:47:10.401Z,12.43
2023-04-18T21:50:11.992Z,12.46
2023-04-18T21:53:13.577Z,12.44
2023-04-18T21:56:17.012Z,12.49
2023-04-18T21:59:18.600Z,12.47
2023-04-18T22:02:20.396Z,12.40
2023-04-18T22:05:21.993Z,12.30
2023-04-18T22:08:25.856Z,12.23
2023-04-18T22:11:28.584Z,12.25
2023-04-18T22:14:32.069Z,12.20
2023-04-18T22:17:34.893Z,12.13
2023-04-18T22:20:37.379Z,11.99
2023-04-18T22:23:39.038Z,11.87
2023-04-18T22:26:41.004Z,11.90
2023-04-18T22:29:42.570Z,11.86
2023-04-18T22:32:44.194Z,11.72
2023-04-18T22:35:47.507Z,11.64
2023-04-18T22:38:49.136Z,11.52
2023-04-18T22:41:50.691Z,11.68
2023-04-18T22:44:52.231Z,11.70
2023-04-18T22:47:53.875Z,11.87
2023-04-18T22:50:55.553Z,11.86
2023-04-18T22:53:57.131Z,11.84
2023-04-18T22:56:58.717Z,11.87
2023-04-18T23:00:00.294Z,11.70
2023-04-18T23:03:02.553Z,11.48
2023-04-18T23:06:07.397Z,11.59
2023-04-18T23:09:09.775Z,11.49
2023-04-18T23:12:12.620Z,11.43
2023-04-18T23:15:14.223Z,11.35
2023-04-18T23:18:15.842Z,11.27
2023-04-18T23:21:17.964Z,11.19
2023-04-18T23:24:19.519Z,11.19
2023-04-18T23:27:21.130Z,11.15
2023-04-18T23:30:22.713Z,11.23
2023-04-18T23:33:24.310Z,11.24
2023-04-18T23:36:27.374Z,11.18
2023-04-18T23:39:29.038Z,11.24
2023-04-18T23:42:30.626Z,11.14
2023-04-18T23:45:32.218Z,11.15
2023-04-18T23:48:33.795Z,11.17
2023-04-18T23:51:35.419Z,11.12
2023-04-18T23:54:36.986Z,11.02
2023-04-18T23:57:38.543Z,11.05
